KHDC

Hammond Northshore Regional Airport

Hammond, Louisiana, USA
METAR KHDC 220035Z AUTO 16010G15KT 10SM SCT020 BKN032 OVC060 23/21 A3019 RMK AO2 LTG DSNT W
Observed Flight Rules
Feb-22 @ 00:35 UTC (4 hours ago) Visual Flight Rules
Wind Visibility Clouds
160° at 10 knots
 Gusting to 15 knots
10 miles
  • Scattered at 2,000' AGL
  • Broken at 3,200' AGL
  • Overcast at 6,000' AGL
Temperatures Readings
Current 23°C / 73°F
Dewpoint 21°C / 70°F
Humidity 89%
Altimeter 30.19" Hg
Pressure 1022 hPa
Elevation 13
METAR KHDC 220035Z AUTO 16010G15KT 10SM SCT020 BKN032 OVC060 23/21 A3019 RMK AO2 LTG DSNT W
Observed Flight Rules
Feb-22 @ 00:35 UTC
(4 hours ago)
VFR
Wind Visibility
160° at 10 knots
 Gusting to 15 knots
10 miles
Clouds
  • Scattered at 2,000' AGL
  • Broken at 3,200' AGL
  • Overcast at 6,000' AGL
Temperature Dewpoint
23°C / 73°F 21°C / 70°F
Humidity Altimeter Pressure
89% 30.19" Hg 1022 hPa